To NAV CANADA Home Page Login to a new session Search on AWWS site Feedback and Comments Disclaimer Vers la page française équivalente Tips FAQ What's new on the site To the Forecasts and Observations / NOTAM section To "File a Flight Plan" website Publications and other links Update of the User's profile FIC Telephone Numbers My Weather Data Folder Route Weather Data Regional Weather Data Local Weather Data To the Forecasts and Observations / NOTAM section
Request Generated 02/12/2016 at 22:12:00 UTC . Weather information available at that time is displayed.

METAR/TAF

HAVRE ST-PIERRE/QC    (show WxCam)

METAR CYGV 122200Z AUTO 29008KT 9SM FEW075 BKN090 BKN110 BKN240
M16/M20 A2972 RMK SLP071=
METAR CYGV 122100Z AUTO 29010G15KT 9SM BKN090 OVC240 M15/M20 A2969
RMK SLP061=
METAR CYGV 122000Z AUTO 29012G20KT 9SM OVC075 M15/M19 A2967 RMK
SLP052=

TAF CYGV 121938Z 1220/1308 29012KT P6SM SCT030 BKN100
FM122200 29012KT P6SM FEW030
BECMG 1302/1304 30008KT
RMK FCST BASED ON AUTO OBS. NXT FCST BY 130200Z=
Your time UTC time
Weather data provided by Environment Canada and NAV CANADA